CYYF

Penticton Airport

Penticton, , Canada
TAF CYYF 241838Z 2419/2507 01010KT P6SM SCT080 TEMPO 2419/2507 BKN080 RMK NXT FCST BY 250100Z
Issued Valid From Valid To
Sep-24 @ 18:38 UTC
(an hour ago)
Sep-24 @ 19:00 UTC
(58 minutes ago)
Sep-25 @ 07:00 UTC
(in 11 hours)
Sep-24 @ 19:00 to Sep-25 @ 07:00
TAF CYYF 241838Z 2419/2507 01010KT P6SM SCT080
Wind Visibility Clouds
10° at 10 knots Greater than 6 miles
  • Scattered at 8,000' AGL
Temporary Sep-24 @ 19:00 to Sep-25 @ 07:00
TEMPO 2419/2507 BKN080 RMK NXT FCST BY 250100Z
Clouds
  • Broken at 8,000' AGL
TAF CYYF 241838Z 2419/2507 01010KT P6SM SCT080 TEMPO 2419/2507 BKN080 RMK NXT FCST BY 250100Z
Issued Sep-24 @ 18:38 UTC
(an hour ago)
Valid From Sep-24 @ 19:00 UTC
(58 minutes ago)
Valid To Sep-25 @ 07:00 UTC
(in 11 hours)
Sep-24 @ 19:00 - Sep-25 @ 07:00
Wind Visibility
10° at 10 knots Greater than 6 miles
Clouds
  • Scattered at 8,000' AGL
Temporary Sep-24 @ 19:00 - Sep-25 @ 07:00
Clouds
  • Broken at 8,000' AGL